createdAt,value
2019-02-15T00:01:50.742Z,11.68
2019-02-15T00:04:19.509Z,11.28
2019-02-15T00:06:54.988Z,11.48
2019-02-15T00:09:23.681Z,11.03
2019-02-15T00:11:52.391Z,9.47
2019-02-15T00:14:28.265Z,10.75
2019-02-15T00:17:03.542Z,11.17
2019-02-15T00:19:48.041Z,10.40
2019-02-15T00:22:16.761Z,11.15
2019-02-15T00:24:45.494Z,10.73
2019-02-15T00:27:28.099Z,10.50
2019-02-15T00:29:56.893Z,11.73
2019-02-15T00:32:25.573Z,11.05
2019-02-15T00:35:00.916Z,9.38
2019-02-15T00:37:29.627Z,10.05
2019-02-15T00:39:58.387Z,11.53
2019-02-15T00:42:34.140Z,10.70
2019-02-15T00:45:02.957Z,9.87
2019-02-15T00:47:55.442Z,11.63
2019-02-15T00:50:40.665Z,11.28
2019-02-15T00:53:25.701Z,11.33
2019-02-15T00:56:12.078Z,10.63
2019-02-15T00:59:18.478Z,11.67
2019-02-15T01:02:09.279Z,11.97
2019-02-15T01:04:53.680Z,11.25
2019-02-15T01:07:38.268Z,11.97
2019-02-15T01:10:23.034Z,11.00
2019-02-15T01:12:59.098Z,10.60
2019-02-15T01:15:40.456Z,12.43
2019-02-15T01:18:15.371Z,11.00
2019-02-15T01:20:51.156Z,11.43
2019-02-15T01:23:19.942Z,10.90
2019-02-15T01:26:02.234Z,9.63
2019-02-15T01:28:55.373Z,11.63
2019-02-15T01:31:40.019Z,11.53
2019-02-15T01:34:26.641Z,11.03
2019-02-15T01:37:13.283Z,10.18
2019-02-15T01:40:01.903Z,11.20
2019-02-15T01:42:47.742Z,11.40
2019-02-15T01:45:29.666Z,11.22
2019-02-15T01:48:05.081Z,9.93
2019-02-15T01:50:33.803Z,10.70
2019-02-15T01:53:02.567Z,10.75
2019-02-15T01:55:38.398Z,10.28
2019-02-15T01:58:07.208Z,10.15
2019-02-15T02:00:36.299Z,9.70
2019-02-15T02:03:11.310Z,9.40
2019-02-15T02:05:40.115Z,11.85
2019-02-15T02:08:12.063Z,10.38
2019-02-15T02:10:47.146Z,10.38
2019-02-15T02:13:15.901Z,10.70
2019-02-15T02:15:57.773Z,9.78
2019-02-15T02:18:33.422Z,11.12
2019-02-15T02:21:08.866Z,9.78
2019-02-15T02:23:37.605Z,10.15
2019-02-15T02:26:06.331Z,10.45
2019-02-15T02:28:41.527Z,10.15
2019-02-15T02:31:17.449Z,10.37
2019-02-15T02:33:53.241Z,12.28
2019-02-15T02:36:21.980Z,12.18
2019-02-15T02:38:50.734Z,12.23
2019-02-15T02:41:26.340Z,10.40
2019-02-15T02:43:59.700Z,13.50
2019-02-15T02:46:25.557Z,10.65
2019-02-15T02:49:01.298Z,12.18
2019-02-15T02:51:30.003Z,10.60
2019-02-15T02:53:58.740Z,11.25
2019-02-15T02:56:33.688Z,11.35
2019-02-15T02:59:05.362Z,11.00
2019-02-15T03:01:34.160Z,11.80
2019-02-15T03:04:09.455Z,10.45
2019-02-15T03:06:38.195Z,10.70
2019-02-15T03:09:09.206Z,11.15
2019-02-15T03:11:44.603Z,9.67
2019-02-15T03:14:13.598Z,10.78
2019-02-15T03:16:55.607Z,10.15
2019-02-15T03:19:31.299Z,9.80
2019-02-15T03:22:06.405Z,10.15
2019-02-15T03:24:35.121Z,11.95
2019-02-15T03:27:03.877Z,10.20
2019-02-15T03:29:39.381Z,11.63
2019-02-15T03:32:14.717Z,10.48
2019-02-15T03:34:50.326Z,9.45
2019-02-15T03:37:30.386Z,10.68
2019-02-15T03:40:17.464Z,10.90
2019-02-15T03:42:46.231Z,9.80
2019-02-15T03:45:16.855Z,11.25
2019-02-15T03:47:52.059Z,11.60
2019-02-15T03:50:21.883Z,10.82
2019-02-15T03:52:50.625Z,9.78
2019-02-15T03:55:25.541Z,10.08
2019-02-15T03:57:54.404Z,10.20
2019-02-15T04:00:23.113Z,8.80
2019-02-15T04:02:58.817Z,10.68
2019-02-15T04:05:27.608Z,10.90
2019-02-15T04:07:56.310Z,10.93
2019-02-15T04:10:32.107Z,10.80
2019-02-15T04:13:00.822Z,12.55
2019-02-15T04:15:29.614Z,10.82
2019-02-15T04:18:04.781Z,10.05
2019-02-15T04:20:39.984Z,11.28
2019-02-15T04:23:16.901Z,10.15
2019-02-15T04:25:45.590Z,10.60
2019-02-15T04:28:14.356Z,13.32
2019-02-15T04:30:49.586Z,11.53
2019-02-15T04:33:25.192Z,10.63
2019-02-15T04:36:00.997Z,10.63
2019-02-15T04:38:29.756Z,11.43
2019-02-15T04:40:58.550Z,10.23
2019-02-15T04:43:33.540Z,10.15
2019-02-15T04:46:02.308Z,10.15
2019-02-15T04:48:31.060Z,10.50
2019-02-15T04:51:06.429Z,10.75
2019-02-15T04:53:35.143Z,9.78
2019-02-15T04:56:04.139Z,10.08
2019-02-15T04:58:39.877Z,10.05
2019-02-15T05:01:08.593Z,10.85
2019-02-15T05:03:37.567Z,10.23
2019-02-15T05:06:12.793Z,11.85
2019-02-15T05:08:41.592Z,11.73
2019-02-15T05:11:10.342Z,12.07
2019-02-15T05:13:46.165Z,11.33
2019-02-15T05:16:14.940Z,10.20
2019-02-15T05:18:56.631Z,10.43
2019-02-15T05:21:32.868Z,11.05
2019-02-15T05:24:08.652Z,9.68
2019-02-15T05:26:37.409Z,10.05
2019-02-15T05:29:06.146Z,10.80
2019-02-15T05:31:42.032Z,11.38
2019-02-15T05:34:17.352Z,11.38
2019-02-15T05:36:53.617Z,10.20
2019-02-15T05:39:22.392Z,10.78
2019-02-15T05:41:51.242Z,12.30
2019-02-15T05:44:27.122Z,10.65
2019-02-15T05:46:55.973Z,10.72
2019-02-15T05:49:24.714Z,12.85
2019-02-15T05:52:21.269Z,12.40
2019-02-15T05:54:57.164Z,12.63
2019-02-15T05:57:33.698Z,11.60
2019-02-15T06:00:02.552Z,11.33
2019-02-15T06:02:31.340Z,11.73
2019-02-15T06:05:07.709Z,11.83
2019-02-15T06:07:36.491Z,12.73
2019-02-15T06:10:05.294Z,11.65
2019-02-15T06:12:40.910Z,13.22
2019-02-15T06:15:15.115Z,12.40
2019-02-15T06:17:40.083Z,12.77
2019-02-15T06:20:15.733Z,13.07
2019-02-15T06:22:44.462Z,13.18
2019-02-15T06:25:13.192Z,13.98
2019-02-15T06:27:48.424Z,15.10
2019-02-15T06:30:17.168Z,13.13
2019-02-15T06:32:45.878Z,14.38
2019-02-15T06:35:27.771Z,14.98
2019-02-15T06:37:56.555Z,15.50
2019-02-15T06:40:25.316Z,13.85
2019-02-15T06:43:00.116Z,15.93
2019-02-15T06:45:28.821Z,15.50
2019-02-15T06:47:57.540Z,15.48
2019-02-15T06:50:33.252Z,15.63
2019-02-15T06:53:09.934Z,13.10
2019-02-15T06:55:51.906Z,14.65
2019-02-15T06:58:20.632Z,14.45
2019-02-15T07:01:03.432Z,15.03
2019-02-15T07:03:47.066Z,13.85
2019-02-15T07:06:22.639Z,16.37
2019-02-15T07:08:51.404Z,14.90
2019-02-15T07:11:20.149Z,15.10
2019-02-15T07:13:56.946Z,13.13
2019-02-15T07:16:25.721Z,13.72
2019-02-15T07:18:54.531Z,14.00
2019-02-15T07:21:29.800Z,15.48
2019-02-15T07:23:58.753Z,15.95
2019-02-15T07:26:27.488Z,15.70
2019-02-15T07:29:03.136Z,15.78
2019-02-15T07:31:31.916Z,15.35
2019-02-15T07:34:00.618Z,14.80
2019-02-15T07:36:44.042Z,17.48
2019-02-15T07:39:12.760Z,16.35
2019-02-15T07:41:41.452Z,15.48
2019-02-15T07:44:16.736Z,15.80
2019-02-15T07:46:45.444Z,16.23
2019-02-15T07:49:14.169Z,16.25
2019-02-15T07:51:49.789Z,15.58
2019-02-15T07:54:24.727Z,15.70
2019-02-15T07:57:07.431Z,18.70
2019-02-15T07:59:36.145Z,14.63
2019-02-15T08:02:04.878Z,15.30
2019-02-15T08:04:40.478Z,14.98
2019-02-15T08:07:34.701Z,14.80
2019-02-15T08:10:16.681Z,14.98
2019-02-15T08:12:45.389Z,16.42
2019-02-15T08:15:14.122Z,15.93
2019-02-15T08:17:49.893Z,16.52
2019-02-15T08:20:18.696Z,13.90
2019-02-15T08:22:47.626Z,15.15
2019-02-15T08:25:23.216Z,15.30
2019-02-15T08:27:52.759Z,14.20
2019-02-15T08:30:22.167Z,14.70
2019-02-15T08:32:57.508Z,14.68
2019-02-15T08:35:26.221Z,15.15
2019-02-15T08:38:07.885Z,15.78
2019-02-15T08:40:37.455Z,16.02
2019-02-15T08:43:06.334Z,13.83
2019-02-15T08:45:41.765Z,14.00
2019-02-15T08:48:10.444Z,14.85
2019-02-15T08:50:39.169Z,16.05
2019-02-15T08:53:14.818Z,14.90
2019-02-15T08:55:43.529Z,13.45
2019-02-15T08:58:12.253Z,15.90
2019-02-15T09:00:47.183Z,15.53
2019-02-15T09:03:15.919Z,16.87
2019-02-15T09:05:44.926Z,13.85
2019-02-15T09:08:20.586Z,16.40
2019-02-15T09:10:56.164Z,14.50
2019-02-15T09:13:31.489Z,14.15
2019-02-15T09:16:00.240Z,13.93
2019-02-15T09:18:28.966Z,12.50
2019-02-15T09:21:04.523Z,12.20
2019-02-15T09:23:33.232Z,12.63
2019-02-15T09:26:01.969Z,11.43
2019-02-15T09:28:55.664Z,11.22
2019-02-15T09:31:25.117Z,9.88
2019-02-15T09:33:53.794Z,8.40
2019-02-15T09:36:28.629Z,7.95
2019-02-15T09:39:06.089Z,7.47
2019-02-15T09:41:42.496Z,8.75
2019-02-15T09:44:11.245Z,9.55
2019-02-15T09:46:39.990Z,10.50
2019-02-15T09:49:15.696Z,8.25
2019-02-15T09:51:44.425Z,8.58
2019-02-15T09:54:13.143Z,10.00
2019-02-15T09:56:48.404Z,8.40
2019-02-15T09:59:17.092Z,10.37
2019-02-15T10:01:45.795Z,7.47
2019-02-15T10:04:21.144Z,8.55
2019-02-15T10:06:49.881Z,7.90
2019-02-15T10:09:31.492Z,7.42
2019-02-15T10:12:07.128Z,8.68
2019-02-15T10:14:42.804Z,8.13
2019-02-15T10:17:12.233Z,9.40
2019-02-15T10:19:41.249Z,7.65
2019-02-15T10:22:16.768Z,8.23
2019-02-15T10:24:45.817Z,8.65
2019-02-15T10:27:14.634Z,7.30
2019-02-15T10:29:50.168Z,7.33
2019-02-15T10:32:19.918Z,8.83
2019-02-15T10:34:48.841Z,7.75
2019-02-15T10:37:24.069Z,7.05
2019-02-15T10:39:59.588Z,7.35
2019-02-15T10:42:34.447Z,7.35
2019-02-15T10:45:03.256Z,9.08
2019-02-15T10:47:31.988Z,8.10
2019-02-15T10:50:07.777Z,7.03
2019-02-15T10:52:36.511Z,7.83
2019-02-15T10:55:06.426Z,7.62
2019-02-15T10:57:42.213Z,7.78
2019-02-15T11:00:16.766Z,7.93
2019-02-15T11:02:52.847Z,6.70
2019-02-15T11:05:21.559Z,6.65
2019-02-15T11:07:50.260Z,7.95
2019-02-15T11:10:25.924Z,6.72
2019-02-15T11:13:00.875Z,6.58
2019-02-15T11:15:37.117Z,7.35
2019-02-15T11:18:06.103Z,7.70
2019-02-15T11:20:35.202Z,6.62
2019-02-15T11:23:10.109Z,7.60
2019-02-15T11:25:38.906Z,6.78
2019-02-15T11:28:07.594Z,5.55
2019-02-15T11:30:42.593Z,6.05
2019-02-15T11:33:12.116Z,7.23
2019-02-15T11:35:40.818Z,5.58
2019-02-15T11:38:20.611Z,5.33
2019-02-15T11:40:55.786Z,6.45
2019-02-15T11:43:31.020Z,5.92
2019-02-15T11:45:59.742Z,6.25
2019-02-15T11:48:29.523Z,5.17
2019-02-15T11:51:05.230Z,5.35
2019-02-15T11:53:33.946Z,5.62
2019-02-15T11:56:02.682Z,6.03
2019-02-15T11:58:38.525Z,6.30
2019-02-15T12:01:07.704Z,5.42
2019-02-15T12:03:36.400Z,6.15
2019-02-15T12:06:12.344Z,5.95
2019-02-15T12:08:41.021Z,7.08
2019-02-15T12:11:22.531Z,6.22
2019-02-15T12:13:57.990Z,6.43
2019-02-15T12:16:33.736Z,5.92
2019-02-15T12:19:02.409Z,6.17
2019-02-15T12:21:31.120Z,5.20
2019-02-15T12:24:06.744Z,5.37
2019-02-15T12:26:35.448Z,5.22
2019-02-15T12:29:04.142Z,5.42
2019-02-15T12:31:39.158Z,5.05
2019-02-15T12:34:07.861Z,5.47
2019-02-15T12:36:38.424Z,4.85
2019-02-15T12:39:14.504Z,4.20
2019-02-15T12:41:49.415Z,4.30
2019-02-15T12:44:25.022Z,3.90
2019-02-15T12:46:53.737Z,5.30
2019-02-15T12:49:22.458Z,4.53
2019-02-15T12:51:58.112Z,4.08
2019-02-15T12:54:26.899Z,4.70
2019-02-15T12:56:55.641Z,5.35
2019-02-15T12:59:31.473Z,4.83
2019-02-15T13:02:00.183Z,4.50
2019-02-15T13:04:48.399Z,4.03
2019-02-15T13:07:23.879Z,3.95
2019-02-15T13:09:58.836Z,3.58
2019-02-15T13:12:34.374Z,4.37
2019-02-15T13:15:16.561Z,5.78
2019-02-15T13:17:45.237Z,5.72
2019-02-15T13:20:13.939Z,5.33
2019-02-15T13:22:49.019Z,4.50
2019-02-15T13:25:17.836Z,4.37
2019-02-15T13:27:46.499Z,4.53
2019-02-15T13:30:21.914Z,4.03
2019-02-15T13:32:50.572Z,4.33
2019-02-15T13:35:19.471Z,4.55
2019-02-15T13:37:54.804Z,3.90
2019-02-15T13:40:23.448Z,4.35
2019-02-15T13:43:06.105Z,3.70
2019-02-15T13:45:34.812Z,3.95
2019-02-15T13:48:03.471Z,3.92
2019-02-15T13:50:38.668Z,3.95
2019-02-15T13:53:07.320Z,3.25
2019-02-15T13:55:35.999Z,3.67
2019-02-15T13:58:11.900Z,4.97
2019-02-15T14:00:40.553Z,4.92
2019-02-15T14:03:09.244Z,4.17
2019-02-15T14:05:44.974Z,4.60
2019-02-15T14:08:13.649Z,4.05
2019-02-15T14:10:55.310Z,4.72
2019-02-15T14:13:31.055Z,3.90
2019-02-15T14:16:06.613Z,4.25
2019-02-15T14:18:35.324Z,5.67
2019-02-15T14:21:04.055Z,4.60
2019-02-15T14:23:39.095Z,4.62
2019-02-15T14:26:07.900Z,4.17
2019-02-15T14:28:36.794Z,5.17
2019-02-15T14:31:12.278Z,4.95
2019-02-15T14:33:41.068Z,4.72
2019-02-15T14:36:10.713Z,4.75
2019-02-15T14:38:45.859Z,4.80
2019-02-15T14:41:14.589Z,4.47
2019-02-15T14:43:57.269Z,4.75
2019-02-15T14:46:26.001Z,5.65
2019-02-15T14:48:54.803Z,4.92
2019-02-15T14:51:30.054Z,4.08
2019-02-15T14:53:59.599Z,3.40
2019-02-15T14:56:28.340Z,2.95
2019-02-15T14:59:03.932Z,3.55
2019-02-15T15:01:32.676Z,3.25
2019-02-15T15:04:01.400Z,3.25
2019-02-15T15:06:36.717Z,4.03
2019-02-15T15:09:06.720Z,3.47
2019-02-15T15:11:48.992Z,4.12
2019-02-15T15:14:23.785Z,3.10
2019-02-15T15:16:59.480Z,3.50
2019-02-15T15:19:28.162Z,3.58
2019-02-15T15:21:56.857Z,4.53
2019-02-15T15:24:32.581Z,5.20
2019-02-15T15:27:01.296Z,4.50
2019-02-15T15:29:30.309Z,5.22
2019-02-15T15:32:05.869Z,4.12
2019-02-15T15:34:34.603Z,4.72
2019-02-15T15:37:03.946Z,4.60
2019-02-15T15:39:38.872Z,4.90
2019-02-15T15:42:07.594Z,4.90
2019-02-15T15:44:49.204Z,3.55
2019-02-15T15:47:17.897Z,5.20
2019-02-15T15:49:46.726Z,4.55
2019-02-15T15:52:22.346Z,4.30
2019-02-15T15:54:51.061Z,3.85
2019-02-15T15:57:20.116Z,4.70
2019-02-15T15:59:55.985Z,4.55
2019-02-15T16:02:24.679Z,3.27
2019-02-15T16:04:53.493Z,3.75
2019-02-15T16:07:29.023Z,4.30
2019-02-15T16:10:00.046Z,3.83
2019-02-15T16:12:41.763Z,2.90
2019-02-15T16:15:17.774Z,4.05
2019-02-15T16:17:53.532Z,4.60
2019-02-15T16:20:22.219Z,4.53
2019-02-15T16:22:51.003Z,4.40
2019-02-15T16:25:26.069Z,4.75
2019-02-15T16:27:54.771Z,3.98
2019-02-15T16:30:24.614Z,4.17
2019-02-15T16:33:01.453Z,4.03
2019-02-15T16:35:30.997Z,5.60
2019-02-15T16:37:59.789Z,4.40
2019-02-15T16:40:34.967Z,4.13
2019-02-15T16:43:03.845Z,3.92
2019-02-15T16:45:45.992Z,4.27
2019-02-15T16:48:14.800Z,4.25
2019-02-15T16:50:43.600Z,4.73
2019-02-15T16:53:19.311Z,4.72
2019-02-15T16:55:48.102Z,6.50
2019-02-15T16:58:17.084Z,5.12
2019-02-15T17:00:52.870Z,5.33
2019-02-15T17:03:21.719Z,6.62
2019-02-15T17:05:50.593Z,5.22
2019-02-15T17:08:26.375Z,6.10
2019-02-15T17:10:55.405Z,6.28
2019-02-15T17:13:38.743Z,7.30
2019-02-15T17:16:14.577Z,5.92
2019-02-15T17:18:52.203Z,4.97
2019-02-15T17:21:20.392Z,5.30
2019-02-15T17:23:49.167Z,6.60
2019-02-15T17:26:24.424Z,4.55
2019-02-15T17:28:53.359Z,5.40
2019-02-15T17:31:22.091Z,5.78
2019-02-15T17:33:57.642Z,6.83
2019-02-15T17:36:26.414Z,4.70
2019-02-15T17:38:55.145Z,6.28
2019-02-15T17:41:30.035Z,4.95
2019-02-15T17:43:58.869Z,6.45
2019-02-15T17:46:42.391Z,5.40
2019-02-15T17:49:11.262Z,6.00
2019-02-15T17:51:40.080Z,6.30
2019-02-15T17:54:15.851Z,6.42
2019-02-15T17:56:46.770Z,5.28
2019-02-15T17:59:15.616Z,7.12
2019-02-15T18:01:51.459Z,6.65
2019-02-15T18:04:20.291Z,7.72
2019-02-15T18:06:49.084Z,5.97
2019-02-15T18:09:24.849Z,7.05
2019-02-15T18:11:53.593Z,6.25
2019-02-15T18:14:35.296Z,6.85
2019-02-15T18:17:10.627Z,7.97
2019-02-15T18:19:47.502Z,6.78
2019-02-15T18:22:16.371Z,9.33
2019-02-15T18:24:45.125Z,10.13
2019-02-15T18:27:20.389Z,6.75
2019-02-15T18:29:49.101Z,8.00
2019-02-15T18:32:17.834Z,9.45
2019-02-15T18:34:53.073Z,8.13
2019-02-15T18:37:21.776Z,9.20
2019-02-15T18:39:50.509Z,9.70
2019-02-15T18:42:25.910Z,13.28
2019-02-15T18:44:54.609Z,13.77
2019-02-15T18:47:36.814Z,13.00
2019-02-15T18:50:05.841Z,12.43
2019-02-15T18:52:34.590Z,11.33
2019-02-15T18:55:10.315Z,10.90
2019-02-15T18:57:39.241Z,10.45
2019-02-15T19:00:10.120Z,9.40
2019-02-15T19:02:45.736Z,9.80
2019-02-15T19:05:14.576Z,10.82
2019-02-15T19:07:43.421Z,10.72
2019-02-15T19:10:20.409Z,12.20
2019-02-15T19:12:49.221Z,11.08
2019-02-15T19:15:30.867Z,9.40
2019-02-15T19:18:05.780Z,10.78
2019-02-15T19:20:41.451Z,10.78
2019-02-15T19:23:10.228Z,11.18
2019-02-15T19:25:39.837Z,11.28
2019-02-15T19:28:14.997Z,12.35
2019-02-15T19:30:43.798Z,11.03
2019-02-15T19:33:12.623Z,13.20
2019-02-15T19:35:48.759Z,12.13
2019-02-15T19:38:17.500Z,14.95
2019-02-15T19:40:46.219Z,15.10
2019-02-15T19:43:22.180Z,13.10
2019-02-15T19:45:52.740Z,16.55
2019-02-15T19:48:35.658Z,13.30
2019-02-15T19:51:04.658Z,14.30
2019-02-15T19:53:33.438Z,12.70
2019-02-15T19:56:08.694Z,12.80
2019-02-15T19:58:37.573Z,12.18
2019-02-15T20:01:06.273Z,12.28
2019-02-15T20:03:41.692Z,12.63
2019-02-15T20:06:10.544Z,12.75
2019-02-15T20:08:39.449Z,16.07
2019-02-15T20:11:22.688Z,15.93
2019-02-15T20:13:51.479Z,17.63
2019-02-15T20:16:39.914Z,15.65
2019-02-15T20:19:08.673Z,15.95
2019-02-15T20:21:37.544Z,18.95
2019-02-15T20:24:13.227Z,21.17
2019-02-15T20:26:42.020Z,21.50
2019-02-15T20:29:10.748Z,23.73
2019-02-15T20:31:46.509Z,23.53
2019-02-15T20:34:15.254Z,20.68
2019-02-15T20:36:43.988Z,21.05
2019-02-15T20:39:21.149Z,18.48
2019-02-15T20:41:49.908Z,16.35
2019-02-15T20:44:19.205Z,15.70
2019-02-15T20:46:54.292Z,13.38
2019-02-15T20:49:29.827Z,13.10
2019-02-15T20:52:05.042Z,13.17
2019-02-15T20:54:33.765Z,12.55
2019-02-15T20:57:02.473Z,12.68
2019-02-15T20:59:37.317Z,12.50
2019-02-15T21:02:06.155Z,11.70
2019-02-15T21:04:34.917Z,12.33
2019-02-15T21:07:10.041Z,10.83
2019-02-15T21:09:38.821Z,14.20
2019-02-15T21:12:07.580Z,13.53
2019-02-15T21:14:42.731Z,12.20
2019-02-15T21:17:17.954Z,12.82
2019-02-15T21:19:53.879Z,13.40
2019-02-15T21:22:22.552Z,12.33
2019-02-15T21:24:51.781Z,11.67
2019-02-15T21:27:27.601Z,12.17
2019-02-15T21:29:56.366Z,11.60
2019-02-15T21:32:26.077Z,11.10
2019-02-15T21:35:01.312Z,11.70
2019-02-15T21:37:30.136Z,11.73
2019-02-15T21:39:58.877Z,10.17
2019-02-15T21:42:33.754Z,10.85
2019-02-15T21:45:02.493Z,12.03
2019-02-15T21:47:31.243Z,12.65
2019-02-15T21:50:06.855Z,12.85
2019-02-15T21:52:44.561Z,12.23
2019-02-15T21:55:19.977Z,12.93
2019-02-15T21:57:48.749Z,15.35
2019-02-15T22:00:18.752Z,14.78
2019-02-15T22:02:54.793Z,15.00
2019-02-15T22:05:23.526Z,13.73
2019-02-15T22:07:52.245Z,12.60
2019-02-15T22:10:27.681Z,14.23
2019-02-15T22:12:56.646Z,15.32
2019-02-15T22:15:38.181Z,15.55
2019-02-15T22:18:13.527Z,16.05
2019-02-15T22:20:49.045Z,15.35
2019-02-15T22:23:17.801Z,15.23
2019-02-15T22:25:46.502Z,15.78
2019-02-15T22:28:21.830Z,15.32
2019-02-15T22:30:51.479Z,14.98
2019-02-15T22:33:20.235Z,13.83
2019-02-15T22:35:55.379Z,13.18
2019-02-15T22:38:24.114Z,12.80
2019-02-15T22:41:14.970Z,13.60
2019-02-15T22:43:44.299Z,13.58
2019-02-15T22:46:13.039Z,13.38
2019-02-15T22:48:48.424Z,15.18
2019-02-15T22:51:17.174Z,12.78
2019-02-15T22:53:59.081Z,11.78
2019-02-15T22:56:27.800Z,13.08
2019-02-15T22:58:56.657Z,12.65
2019-02-15T23:01:32.851Z,12.73
2019-02-15T23:04:01.853Z,15.10
2019-02-15T23:06:30.649Z,13.48
2019-02-15T23:09:05.900Z,14.70
2019-02-15T23:11:34.737Z,15.40
2019-02-15T23:14:03.430Z,14.53
2019-02-15T23:16:38.499Z,15.30
2019-02-15T23:19:14.331Z,15.43
2019-02-15T23:21:49.684Z,15.35
2019-02-15T23:24:19.129Z,16.77
2019-02-15T23:26:47.889Z,15.58
2019-02-15T23:29:22.829Z,15.17
2019-02-15T23:31:51.559Z,14.75
2019-02-15T23:34:20.318Z,14.67
2019-02-15T23:36:55.574Z,13.23
2019-02-15T23:39:24.304Z,12.50
2019-02-15T23:41:53.016Z,13.30
2019-02-15T23:44:28.567Z,15.15
2019-02-15T23:46:57.263Z,15.00
2019-02-15T23:49:25.968Z,18.00
2019-02-15T23:52:01.528Z,15.08
2019-02-15T23:54:37.345Z,14.58
2019-02-15T23:57:13.103Z,14.70
2019-02-15T23:59:41.806Z,13.53
